createdAt,value
2018-12-31T00:00:02.554Z,1023.22
2018-12-31T00:01:02.541Z,1023.26
2018-12-31T00:02:02.524Z,1023.29
2018-12-31T00:03:02.522Z,1023.23
2018-12-31T00:04:02.539Z,1023.25
2018-12-31T00:05:02.494Z,1023.22
2018-12-31T00:06:02.481Z,1023.24
2018-12-31T00:07:02.466Z,1023.24
2018-12-31T00:08:02.455Z,1023.13
2018-12-31T00:09:02.448Z,1023.04
2018-12-31T00:10:02.445Z,1023.04
2018-12-31T00:11:02.426Z,1023.02
2018-12-31T00:12:02.420Z,1022.96
2018-12-31T00:13:02.400Z,1022.98
2018-12-31T00:14:02.401Z,1023.02
2018-12-31T00:15:02.387Z,1023.04
2018-12-31T00:16:02.407Z,1023.09
2018-12-31T00:17:02.367Z,1023.07
2018-12-31T00:18:02.486Z,1023.10
2018-12-31T00:19:02.342Z,1023.13
2018-12-31T00:20:02.331Z,1023.17
2018-12-31T00:21:02.314Z,1023.21
2018-12-31T00:22:02.318Z,1023.22
2018-12-31T00:23:02.299Z,1023.23
2018-12-31T00:24:02.287Z,1023.31
2018-12-31T00:25:02.276Z,1023.37
2018-12-31T00:26:02.301Z,1023.38
2018-12-31T00:27:02.259Z,1023.41
2018-12-31T00:28:02.243Z,1023.39
2018-12-31T00:29:02.229Z,1023.31
2018-12-31T00:30:02.217Z,1023.26
2018-12-31T00:31:02.211Z,1023.20
2018-12-31T00:32:02.217Z,1023.26
2018-12-31T00:33:02.186Z,1023.29
2018-12-31T00:34:02.185Z,1023.37
2018-12-31T00:35:02.170Z,1023.39
2018-12-31T00:36:02.153Z,1023.36
2018-12-31T00:37:02.146Z,1023.30
2018-12-31T00:38:02.156Z,1023.31
2018-12-31T00:39:02.126Z,1023.32
2018-12-31T00:40:02.566Z,1023.28
2018-12-31T00:41:02.100Z,1023.29
2018-12-31T00:42:02.087Z,1023.29
2018-12-31T00:43:02.080Z,1023.25
2018-12-31T00:44:02.088Z,1023.29
2018-12-31T00:45:02.105Z,1023.26
2018-12-31T00:46:02.046Z,1023.24
2018-12-31T00:47:02.045Z,1023.24
2018-12-31T00:48:02.023Z,1023.24
2018-12-31T00:49:02.016Z,1023.24
2018-12-31T00:50:02.003Z,1023.26
2018-12-31T00:51:02.005Z,1023.31
2018-12-31T00:52:01.982Z,1023.28
2018-12-31T00:53:01.970Z,1023.25
2018-12-31T00:54:01.962Z,1023.20
2018-12-31T00:55:01.958Z,1023.24
2018-12-31T00:56:01.944Z,1023.25
2018-12-31T00:57:01.932Z,1023.23
2018-12-31T00:58:01.916Z,1023.22
2018-12-31T00:59:01.920Z,1023.19
2018-12-31T01:00:01.903Z,1023.24
2018-12-31T01:01:01.894Z,1023.26
2018-12-31T01:02:01.902Z,1023.28
2018-12-31T01:03:01.867Z,1023.28
2018-12-31T01:04:01.860Z,1023.25
2018-12-31T01:05:01.845Z,1023.33
2018-12-31T01:06:01.830Z,1023.35
2018-12-31T01:07:01.824Z,1023.36
2018-12-31T01:08:01.815Z,1023.34
2018-12-31T01:09:01.801Z,1023.37
2018-12-31T01:10:01.793Z,1023.37
2018-12-31T01:11:01.775Z,1023.36
2018-12-31T01:12:01.772Z,1023.31
2018-12-31T01:13:01.762Z,1023.34
2018-12-31T01:14:01.754Z,1023.34
2018-12-31T01:15:01.738Z,1023.39
2018-12-31T01:16:01.734Z,1023.35
2018-12-31T01:17:01.716Z,1023.40
2018-12-31T01:18:01.743Z,1023.46
2018-12-31T01:19:01.690Z,1023.43
2018-12-31T01:20:01.693Z,1023.43
2018-12-31T01:21:01.674Z,1023.44
2018-12-31T01:22:01.670Z,1023.40
2018-12-31T01:23:01.655Z,1023.42
2018-12-31T01:24:01.669Z,1023.44
2018-12-31T01:25:01.634Z,1023.45
2018-12-31T01:26:01.620Z,1023.43
2018-12-31T01:27:01.604Z,1023.42
2018-12-31T01:28:01.594Z,1023.46
2018-12-31T01:29:01.597Z,1023.49
2018-12-31T01:30:01.598Z,1023.51
2018-12-31T01:31:01.569Z,1023.58
2018-12-31T01:32:01.551Z,1023.55
2018-12-31T01:33:01.539Z,1023.56
2018-12-31T01:34:01.531Z,1023.57
2018-12-31T01:35:01.537Z,1023.59
2018-12-31T01:36:01.517Z,1023.63
2018-12-31T01:37:01.503Z,1023.60
2018-12-31T01:38:01.485Z,1023.54
2018-12-31T01:39:01.482Z,1023.52
2018-12-31T01:40:01.507Z,1023.53
2018-12-31T01:41:01.463Z,1023.56
2018-12-31T01:42:01.450Z,1023.56
2018-12-31T01:43:01.440Z,1023.57
2018-12-31T01:44:01.423Z,1023.59
2018-12-31T01:45:01.416Z,1023.66
2018-12-31T01:46:01.415Z,1023.70
2018-12-31T01:47:01.397Z,1023.72
2018-12-31T01:48:09.020Z,1023.72
2018-12-31T01:49:01.371Z,1023.72
2018-12-31T01:50:01.364Z,1023.76
2018-12-31T01:51:01.386Z,1023.77
2018-12-31T01:52:01.338Z,1023.78
2018-12-31T01:53:01.357Z,1023.81
2018-12-31T01:54:01.320Z,1023.83
2018-12-31T01:55:01.305Z,1023.85
2018-12-31T01:56:01.293Z,1023.84
2018-12-31T01:57:01.296Z,1023.83
2018-12-31T01:58:01.276Z,1023.84
2018-12-31T01:59:01.292Z,1023.83
2018-12-31T02:00:01.281Z,1023.81
2018-12-31T02:01:01.240Z,1023.88
2018-12-31T02:02:01.231Z,1023.90
2018-12-31T02:03:01.223Z,1023.88
2018-12-31T02:04:01.208Z,1023.85
2018-12-31T02:05:01.205Z,1023.82
2018-12-31T02:06:01.191Z,1023.83
2018-12-31T02:07:01.178Z,1023.86
2018-12-31T02:08:01.178Z,1023.90
2018-12-31T02:09:01.170Z,1023.93
2018-12-31T02:10:01.150Z,1023.93
2018-12-31T02:11:01.139Z,1023.89
2018-12-31T02:12:01.125Z,1023.84
2018-12-31T02:13:01.117Z,1023.83
2018-12-31T02:14:01.114Z,1023.84
2018-12-31T02:15:01.095Z,1023.89
2018-12-31T02:16:01.083Z,1023.89
2018-12-31T02:17:01.071Z,1023.92
2018-12-31T02:18:01.064Z,1023.85
2018-12-31T02:19:01.048Z,1023.86
2018-12-31T02:20:01.081Z,1023.91
2018-12-31T02:21:01.024Z,1023.94
2018-12-31T02:22:01.014Z,1023.90
2018-12-31T02:23:01.007Z,1023.91
2018-12-31T02:24:01.003Z,1023.91
2018-12-31T02:25:00.984Z,1023.92
2018-12-31T02:26:00.985Z,1023.89
2018-12-31T02:27:00.972Z,1023.94
2018-12-31T02:28:00.955Z,1023.97
2018-12-31T02:29:00.937Z,1024.04
2018-12-31T02:30:00.944Z,1024.00
2018-12-31T02:31:00.932Z,1023.97
2018-12-31T02:32:00.914Z,1023.99
2018-12-31T02:33:00.895Z,1023.96
2018-12-31T02:34:00.892Z,1024.00
2018-12-31T02:35:00.873Z,1023.96
2018-12-31T02:36:00.880Z,1023.93
2018-12-31T02:37:00.852Z,1023.92
2018-12-31T02:38:00.847Z,1023.98
2018-12-31T02:39:00.837Z,1024.00
2018-12-31T02:40:00.823Z,1023.96
2018-12-31T02:41:00.828Z,1023.94
2018-12-31T02:42:00.798Z,1023.91
2018-12-31T02:43:00.793Z,1023.92
2018-12-31T02:44:00.780Z,1023.93
2018-12-31T02:45:00.766Z,1023.90
2018-12-31T02:46:00.762Z,1023.92
2018-12-31T02:47:00.790Z,1023.91
2018-12-31T02:48:00.735Z,1023.87
2018-12-31T02:49:00.730Z,1023.89
2018-12-31T02:50:00.714Z,1023.88
2018-12-31T02:51:00.703Z,1023.90
2018-12-31T02:52:00.693Z,1023.87
2018-12-31T02:53:00.688Z,1023.85
2018-12-31T02:54:00.670Z,1023.86
2018-12-31T02:55:00.666Z,1023.90
2018-12-31T02:56:00.658Z,1023.94
2018-12-31T02:57:00.646Z,1023.92
2018-12-31T02:58:00.655Z,1023.91
2018-12-31T02:59:00.620Z,1023.86
2018-12-31T03:00:00.637Z,1023.83
2018-12-31T03:01:00.600Z,1023.78
2018-12-31T03:02:00.588Z,1023.80
2018-12-31T03:03:00.580Z,1023.80
2018-12-31T03:04:00.598Z,1023.79
2018-12-31T03:05:00.555Z,1023.77
2018-12-31T03:06:00.547Z,1023.71
2018-12-31T03:07:00.537Z,1023.67
2018-12-31T03:08:00.525Z,1023.70
2018-12-31T03:09:00.507Z,1023.70
2018-12-31T03:10:00.523Z,1023.71
2018-12-31T03:11:00.496Z,1023.73
2018-12-31T03:12:00.481Z,1023.71
2018-12-31T03:13:00.466Z,1023.70
2018-12-31T03:14:00.460Z,1023.73
2018-12-31T03:15:00.443Z,1023.80
2018-12-31T03:16:00.442Z,1023.83
2018-12-31T03:17:00.424Z,1023.88
2018-12-31T03:18:00.419Z,1023.89
2018-12-31T03:19:08.071Z,1023.87
2018-12-31T03:20:07.480Z,1023.81
2018-12-31T03:21:08.154Z,1023.78
2018-12-31T03:22:09.190Z,1023.79
2018-12-31T03:23:08.223Z,1023.82
2018-12-31T03:24:08.265Z,1023.85
2018-12-31T03:25:08.306Z,1023.89
2018-12-31T03:26:00.354Z,1023.89
2018-12-31T03:27:00.316Z,1023.88
2018-12-31T03:28:00.313Z,1023.96
2018-12-31T03:29:00.299Z,1023.98
2018-12-31T03:30:00.320Z,1024.04
2018-12-31T03:31:07.353Z,1023.94
2018-12-31T03:32:00.266Z,1023.92
2018-12-31T03:33:00.257Z,1023.88
2018-12-31T03:34:00.240Z,1023.87
2018-12-31T03:35:00.229Z,1023.88
2018-12-31T03:36:00.230Z,1023.84
2018-12-31T03:37:00.219Z,1023.84
2018-12-31T03:38:00.213Z,1023.83
2018-12-31T03:39:00.191Z,1023.84
2018-12-31T03:40:00.274Z,1023.84
2018-12-31T03:41:00.164Z,1023.89
2018-12-31T03:42:00.192Z,1023.88
2018-12-31T03:43:00.144Z,1023.95
2018-12-31T03:44:00.141Z,1023.95
2018-12-31T03:45:00.239Z,1023.91
2018-12-31T03:46:00.112Z,1023.96
2018-12-31T03:47:00.100Z,1023.96
2018-12-31T03:48:00.104Z,1023.98
2018-12-31T03:49:00.086Z,1023.92
2018-12-31T03:50:00.194Z,1023.90
2018-12-31T03:51:00.063Z,1023.87
2018-12-31T03:52:00.124Z,1023.85
2018-12-31T03:53:00.050Z,1023.88
2018-12-31T03:54:00.029Z,1023.93
2018-12-31T03:55:00.020Z,1023.91
2018-12-31T03:56:00.021Z,1023.93
2018-12-31T03:56:59.993Z,1024.01
2018-12-31T03:57:59.996Z,1023.99
2018-12-31T03:58:59.974Z,1023.97
2018-12-31T03:59:59.974Z,1023.94
2018-12-31T04:00:59.965Z,1023.96
2018-12-31T04:01:59.939Z,1023.98
2018-12-31T04:02:59.940Z,1023.93
2018-12-31T04:03:59.918Z,1023.92
2018-12-31T04:04:59.908Z,1023.89
2018-12-31T04:05:59.900Z,1023.85
2018-12-31T04:06:59.887Z,1023.84
2018-12-31T04:07:59.911Z,1023.83
2018-12-31T04:08:59.880Z,1023.85
2018-12-31T04:09:59.854Z,1023.91
2018-12-31T04:10:59.846Z,1023.91
2018-12-31T04:11:59.831Z,1023.90
2018-12-31T04:12:59.821Z,1023.88
2018-12-31T04:13:59.829Z,1023.97
2018-12-31T04:14:59.800Z,1023.96
2018-12-31T04:15:59.788Z,1023.97
2018-12-31T04:16:59.783Z,1023.92
2018-12-31T04:17:59.779Z,1023.97
2018-12-31T04:18:59.774Z,1023.93
2018-12-31T04:19:59.745Z,1023.94
2018-12-31T04:20:59.745Z,1024.02
2018-12-31T04:21:59.730Z,1024.08
2018-12-31T04:22:59.717Z,1024.06
2018-12-31T04:23:59.703Z,1024.02
2018-12-31T04:24:59.702Z,1024.02
2018-12-31T04:25:59.687Z,1024.01
2018-12-31T04:26:59.686Z,1023.97
2018-12-31T04:27:59.664Z,1023.97
2018-12-31T04:28:59.654Z,1023.94
2018-12-31T04:29:59.667Z,1023.91
2018-12-31T04:30:59.631Z,1023.89
2018-12-31T04:31:59.618Z,1023.93
2018-12-31T04:32:59.605Z,1023.93
2018-12-31T04:33:59.599Z,1023.94
2018-12-31T04:34:59.596Z,1023.93
2018-12-31T04:35:59.581Z,1023.96
2018-12-31T04:36:59.578Z,1023.95
2018-12-31T04:37:59.562Z,1023.95
2018-12-31T04:38:59.546Z,1023.98
2018-12-31T04:39:59.533Z,1023.98
2018-12-31T04:40:59.540Z,1024.00
2018-12-31T04:41:59.513Z,1023.99
2018-12-31T04:42:59.503Z,1024.03
2018-12-31T04:43:59.493Z,1024.01
2018-12-31T04:44:59.480Z,1024.00
2018-12-31T04:45:59.491Z,1023.98
2018-12-31T04:46:59.455Z,1023.97
2018-12-31T04:47:59.453Z,1023.92
2018-12-31T04:48:59.443Z,1023.98
2018-12-31T04:49:59.426Z,1023.95
2018-12-31T04:50:59.410Z,1023.97
2018-12-31T04:51:59.418Z,1024.01
2018-12-31T04:52:59.393Z,1024.00
2018-12-31T04:53:59.389Z,1023.96
2018-12-31T04:54:59.367Z,1023.91
2018-12-31T04:55:59.360Z,1023.93
2018-12-31T04:56:59.360Z,1023.96
2018-12-31T04:57:59.337Z,1023.95
2018-12-31T04:58:59.332Z,1023.95
2018-12-31T04:59:59.327Z,1023.93
2018-12-31T05:00:59.312Z,1023.96
2018-12-31T05:01:59.297Z,1023.97
2018-12-31T05:02:59.281Z,1023.98
2018-12-31T05:03:59.285Z,1023.94
2018-12-31T05:04:59.267Z,1023.94
2018-12-31T05:05:59.259Z,1023.92
2018-12-31T05:06:59.283Z,1023.87
2018-12-31T05:07:59.227Z,1023.85
2018-12-31T05:08:59.222Z,1023.85
2018-12-31T05:09:59.212Z,1023.89
2018-12-31T05:10:59.195Z,1023.97
2018-12-31T05:11:59.196Z,1023.97
2018-12-31T05:12:59.188Z,1024.04
2018-12-31T05:13:59.162Z,1024.11
2018-12-31T05:14:59.155Z,1024.02
2018-12-31T05:15:59.153Z,1023.98
2018-12-31T05:16:59.137Z,1024.01
2018-12-31T05:17:59.129Z,1024.10
2018-12-31T05:18:59.122Z,1024.10
2018-12-31T05:19:59.096Z,1024.08
2018-12-31T05:20:59.091Z,1024.11
2018-12-31T05:21:59.084Z,1024.09
2018-12-31T05:22:59.101Z,1024.09
2018-12-31T05:23:59.066Z,1024.18
2018-12-31T05:24:59.048Z,1024.20
2018-12-31T05:25:59.042Z,1024.25
2018-12-31T05:26:59.023Z,1024.27
2018-12-31T05:27:59.023Z,1024.29
2018-12-31T05:28:59.008Z,1024.31
2018-12-31T05:29:58.995Z,1024.31
2018-12-31T05:30:58.983Z,1024.31
2018-12-31T05:31:58.971Z,1024.27
2018-12-31T05:32:59.006Z,1024.31
2018-12-31T05:33:58.950Z,1024.30
2018-12-31T05:34:58.946Z,1024.30
2018-12-31T05:35:58.924Z,1024.32
2018-12-31T05:36:58.912Z,1024.29
2018-12-31T05:37:58.907Z,1024.32
2018-12-31T05:38:58.911Z,1024.33
2018-12-31T05:39:58.885Z,1024.32
2018-12-31T05:40:58.873Z,1024.31
2018-12-31T05:41:58.867Z,1024.31
2018-12-31T05:42:58.850Z,1024.36
2018-12-31T05:43:58.859Z,1024.35
2018-12-31T05:44:58.831Z,1024.34
2018-12-31T05:45:58.818Z,1024.35
2018-12-31T05:46:58.821Z,1024.34
2018-12-31T05:47:58.796Z,1024.36
2018-12-31T05:48:58.792Z,1024.41
2018-12-31T05:49:58.785Z,1024.37
2018-12-31T05:50:58.769Z,1024.34
2018-12-31T05:51:58.755Z,1024.34
2018-12-31T05:52:58.745Z,1024.39
2018-12-31T05:53:58.729Z,1024.38
2018-12-31T05:54:58.730Z,1024.40
2018-12-31T05:55:58.712Z,1024.42
2018-12-31T05:56:58.699Z,1024.42
2018-12-31T05:57:58.691Z,1024.37
2018-12-31T05:58:58.686Z,1024.39
2018-12-31T05:59:58.705Z,1024.40
2018-12-31T06:00:58.658Z,1024.40
2018-12-31T06:01:58.649Z,1024.39
2018-12-31T06:02:58.646Z,1024.41
2018-12-31T06:03:58.628Z,1024.37
2018-12-31T06:04:58.626Z,1024.39
2018-12-31T06:05:58.632Z,1024.38
2018-12-31T06:06:58.597Z,1024.38
2018-12-31T06:07:58.586Z,1024.36
2018-12-31T06:08:58.569Z,1024.39
2018-12-31T06:09:58.556Z,1024.37
2018-12-31T06:10:58.568Z,1024.39
2018-12-31T06:11:58.584Z,1024.44
2018-12-31T06:12:58.529Z,1024.44
2018-12-31T06:13:58.515Z,1024.44
2018-12-31T06:14:58.506Z,1024.45
2018-12-31T06:15:58.493Z,1024.50
2018-12-31T06:16:58.485Z,1024.50
2018-12-31T06:17:58.511Z,1024.52
2018-12-31T06:18:58.463Z,1024.47
2018-12-31T06:19:58.451Z,1024.47
2018-12-31T06:20:58.438Z,1024.46
2018-12-31T06:21:58.439Z,1024.48
2018-12-31T06:22:58.421Z,1024.49
2018-12-31T06:23:58.458Z,1024.52
2018-12-31T06:24:58.399Z,1024.52
2018-12-31T06:25:58.389Z,1024.55
2018-12-31T06:26:58.377Z,1024.56
2018-12-31T06:27:58.371Z,1024.60
2018-12-31T06:28:58.357Z,1024.60
2018-12-31T06:29:58.379Z,1024.54
2018-12-31T06:30:58.331Z,1024.60
2018-12-31T06:31:58.332Z,1024.60
2018-12-31T06:32:58.308Z,1024.63
2018-12-31T06:33:58.307Z,1024.62
2018-12-31T06:34:58.291Z,1024.64
2018-12-31T06:35:58.283Z,1024.61
2018-12-31T06:36:58.269Z,1024.66
2018-12-31T06:37:58.310Z,1024.69
2018-12-31T06:38:58.254Z,1024.71
2018-12-31T06:39:58.245Z,1024.74
2018-12-31T06:40:58.229Z,1024.72
2018-12-31T06:41:58.212Z,1024.74
2018-12-31T06:42:58.206Z,1024.74
2018-12-31T06:43:58.207Z,1024.75
2018-12-31T06:44:58.192Z,1024.74
2018-12-31T06:45:58.184Z,1024.66
2018-12-31T06:46:58.202Z,1024.64
2018-12-31T06:47:58.155Z,1024.64
2018-12-31T06:48:58.143Z,1024.66
2018-12-31T06:49:58.134Z,1024.65
2018-12-31T06:50:58.122Z,1024.60
2018-12-31T06:51:58.109Z,1024.62
2018-12-31T06:52:58.107Z,1024.56
2018-12-31T06:53:58.084Z,1024.49
2018-12-31T06:54:58.072Z,1024.53
2018-12-31T06:55:58.064Z,1024.51
2018-12-31T06:56:58.061Z,1024.53
2018-12-31T06:57:58.077Z,1024.54
2018-12-31T06:58:58.032Z,1024.53
2018-12-31T06:59:58.035Z,1024.51
2018-12-31T07:00:58.274Z,1024.53
2018-12-31T07:01:58.014Z,1024.52
2018-12-31T07:02:57.988Z,1024.58
2018-12-31T07:03:57.976Z,1024.61
2018-12-31T07:04:57.966Z,1024.61
2018-12-31T07:05:57.960Z,1024.62
2018-12-31T07:06:57.970Z,1024.62
2018-12-31T07:07:57.942Z,1024.57
2018-12-31T07:08:57.944Z,1024.63
2018-12-31T07:09:57.921Z,1024.62
2018-12-31T07:10:57.906Z,1024.61
2018-12-31T07:12:04.990Z,1024.64
2018-12-31T07:13:05.908Z,1024.67
2018-12-31T07:14:05.417Z,1024.70
2018-12-31T07:15:05.975Z,1024.64
2018-12-31T07:15:57.857Z,1024.66
2018-12-31T07:16:57.841Z,1024.64
2018-12-31T07:17:57.833Z,1024.70
2018-12-31T07:18:57.821Z,1024.67
2018-12-31T07:19:57.830Z,1024.65
2018-12-31T07:20:57.799Z,1024.67
2018-12-31T07:21:57.785Z,1024.64
2018-12-31T07:22:57.778Z,1024.68
2018-12-31T07:23:57.771Z,1024.66
2018-12-31T07:24:57.758Z,1024.69
2018-12-31T07:25:57.781Z,1024.72
2018-12-31T07:26:57.736Z,1024.70
2018-12-31T07:27:57.719Z,1024.78
2018-12-31T07:28:57.715Z,1024.79
2018-12-31T07:29:57.703Z,1024.77
2018-12-31T07:30:57.688Z,1024.78
2018-12-31T07:31:57.690Z,1024.79
2018-12-31T07:32:57.672Z,1024.83
2018-12-31T07:33:57.660Z,1024.83
2018-12-31T07:34:57.653Z,1024.82
2018-12-31T07:35:57.635Z,1024.88
2018-12-31T07:36:57.625Z,1024.89
2018-12-31T07:37:57.623Z,1024.88
2018-12-31T07:38:57.610Z,1024.92
2018-12-31T07:39:57.600Z,1024.95
2018-12-31T07:40:57.583Z,1024.88
2018-12-31T07:41:57.578Z,1024.95
2018-12-31T07:42:57.567Z,1024.94
2018-12-31T07:43:57.555Z,1025.03
2018-12-31T07:44:57.551Z,1025.02
2018-12-31T07:45:57.534Z,1025.03
2018-12-31T07:46:57.524Z,1025.09
2018-12-31T07:47:57.524Z,1025.09
2018-12-31T07:48:57.502Z,1025.09
2018-12-31T07:49:57.485Z,1025.01
2018-12-31T07:50:57.482Z,1025.08
2018-12-31T07:51:57.465Z,1025.03
2018-12-31T07:52:57.466Z,1025.05
2018-12-31T07:53:57.449Z,1025.03
2018-12-31T07:55:05.524Z,1025.03
2018-12-31T07:56:05.029Z,1025.04
2018-12-31T07:57:05.046Z,1025.02
2018-12-31T07:57:57.404Z,1025.02
2018-12-31T07:58:57.400Z,1025.05
2018-12-31T08:00:04.435Z,1025.04
2018-12-31T08:00:57.385Z,1025.01
2018-12-31T08:02:05.099Z,1025.06
2018-12-31T08:02:57.351Z,1025.05
2018-12-31T08:03:57.361Z,1025.08
2018-12-31T08:04:57.328Z,1025.08
2018-12-31T08:05:58.139Z,1025.06
2018-12-31T08:06:57.308Z,1025.11
2018-12-31T08:07:57.308Z,1025.12
2018-12-31T08:08:57.286Z,1025.15
2018-12-31T08:09:57.375Z,1025.12
2018-12-31T08:10:57.261Z,1025.05
2018-12-31T08:11:57.262Z,1025.10
2018-12-31T08:12:57.252Z,1025.08
2018-12-31T08:13:57.233Z,1025.06
2018-12-31T08:14:57.218Z,1025.07
2018-12-31T08:15:57.208Z,1025.09
2018-12-31T08:16:57.205Z,1025.09
2018-12-31T08:17:57.191Z,1025.06
2018-12-31T08:18:57.191Z,1025.01
2018-12-31T08:19:57.172Z,1025.00
2018-12-31T08:20:57.175Z,1025.00
2018-12-31T08:21:57.144Z,1025.02
2018-12-31T08:22:57.133Z,1025.05
2018-12-31T08:23:57.152Z,1025.02
2018-12-31T08:24:57.119Z,1025.08
2018-12-31T08:25:57.111Z,1025.09
2018-12-31T08:26:57.091Z,1025.05
2018-12-31T08:27:57.084Z,1025.04
2018-12-31T08:28:57.067Z,1025.07
2018-12-31T08:29:57.069Z,1025.07
2018-12-31T08:30:57.050Z,1025.11
2018-12-31T08:31:57.038Z,1025.09
2018-12-31T08:32:57.025Z,1025.13
2018-12-31T08:33:57.019Z,1025.17
2018-12-31T08:34:57.055Z,1025.18
2018-12-31T08:35:57.001Z,1025.18
2018-12-31T08:36:56.988Z,1025.18
2018-12-31T08:37:56.971Z,1025.17
2018-12-31T08:38:56.966Z,1025.11
2018-12-31T08:39:56.955Z,1025.10
2018-12-31T08:40:56.971Z,1025.09
2018-12-31T08:41:56.927Z,1025.11
2018-12-31T08:42:56.926Z,1025.09
2018-12-31T08:44:05.641Z,1025.13
2018-12-31T08:45:06.161Z,1025.15
2018-12-31T08:46:03.959Z,1025.15
2018-12-31T08:47:04.697Z,1025.18
2018-12-31T08:48:05.732Z,1025.16
2018-12-31T08:49:04.751Z,1025.16
2018-12-31T08:50:04.774Z,1025.16
2018-12-31T08:50:56.844Z,1025.12
2018-12-31T08:51:56.824Z,1025.16
2018-12-31T08:52:56.810Z,1025.11
2018-12-31T08:53:56.803Z,1025.11
2018-12-31T08:54:56.823Z,1025.08
2018-12-31T08:55:56.777Z,1025.09
2018-12-31T08:56:56.766Z,1025.10
2018-12-31T08:57:56.761Z,1025.08
2018-12-31T08:59:04.298Z,1025.12
2018-12-31T08:59:56.741Z,1025.10
2018-12-31T09:00:56.736Z,1025.13
2018-12-31T09:01:56.712Z,1025.14
2018-12-31T09:02:56.712Z,1025.12
2018-12-31T09:03:56.690Z,1025.15
2018-12-31T09:04:56.679Z,1025.18
2018-12-31T09:05:56.670Z,1025.08
2018-12-31T09:06:56.663Z,1025.12
2018-12-31T09:07:56.704Z,1025.12
2018-12-31T09:08:56.636Z,1025.10
2018-12-31T09:09:56.625Z,1025.07
2018-12-31T09:10:56.613Z,1025.07
2018-12-31T09:11:56.609Z,1025.02
2018-12-31T09:12:56.601Z,1025.04
2018-12-31T09:13:56.623Z,1025.08
2018-12-31T09:14:56.576Z,1025.01
2018-12-31T09:15:56.558Z,1025.00
2018-12-31T09:16:56.595Z,1025.03
2018-12-31T09:17:56.546Z,1024.98
2018-12-31T09:18:56.528Z,1024.99
2018-12-31T09:19:56.528Z,1025.00
2018-12-31T09:20:56.504Z,1025.00
2018-12-31T09:21:56.500Z,1025.08
2018-12-31T09:22:56.483Z,1025.06
2018-12-31T09:23:56.493Z,1025.05
2018-12-31T09:24:56.462Z,1025.03
2018-12-31T09:25:56.553Z,1024.97
2018-12-31T09:26:56.444Z,1025.00
2018-12-31T09:27:56.433Z,1024.94
2018-12-31T09:28:56.467Z,1024.95
2018-12-31T09:29:56.417Z,1024.93
2018-12-31T09:30:56.414Z,1024.93
2018-12-31T09:31:56.460Z,1024.90
2018-12-31T09:32:56.380Z,1024.91
2018-12-31T09:33:56.365Z,1024.84
2018-12-31T09:34:56.366Z,1024.90
2018-12-31T09:35:56.341Z,1024.86
2018-12-31T09:36:56.334Z,1024.86
2018-12-31T09:37:56.324Z,1024.89
2018-12-31T09:38:56.311Z,1024.86
2018-12-31T09:39:56.308Z,1024.88
2018-12-31T09:40:56.300Z,1024.90
2018-12-31T09:41:56.283Z,1024.91
2018-12-31T09:42:56.269Z,1024.91
2018-12-31T09:43:56.256Z,1024.95
2018-12-31T09:44:56.253Z,1024.93
2018-12-31T09:45:56.250Z,1024.93
2018-12-31T09:46:56.252Z,1024.96
2018-12-31T09:47:56.217Z,1024.95
2018-12-31T09:48:56.201Z,1024.90
2018-12-31T09:49:56.195Z,1024.90
2018-12-31T09:50:56.184Z,1024.93
2018-12-31T09:51:56.215Z,1024.93
2018-12-31T09:52:56.160Z,1024.92
2018-12-31T09:53:56.152Z,1024.93
2018-12-31T09:54:56.136Z,1024.99
2018-12-31T09:55:56.132Z,1024.94
2018-12-31T09:56:56.122Z,1024.99
2018-12-31T09:57:56.127Z,1024.99
2018-12-31T09:58:56.093Z,1024.96
2018-12-31T09:59:56.090Z,1024.98
2018-12-31T10:00:56.073Z,1024.97
2018-12-31T10:01:56.070Z,1024.95
2018-12-31T10:02:56.077Z,1025.02
2018-12-31T10:03:56.045Z,1024.97
2018-12-31T10:04:56.032Z,1024.93
2018-12-31T10:05:56.027Z,1024.91
2018-12-31T10:06:56.015Z,1024.92
2018-12-31T10:07:56.017Z,1024.92
2018-12-31T10:08:55.997Z,1024.91
2018-12-31T10:09:55.984Z,1024.93
2018-12-31T10:10:55.968Z,1024.91
2018-12-31T10:11:55.955Z,1024.89
2018-12-31T10:12:55.949Z,1024.88
2018-12-31T10:13:55.929Z,1024.91
2018-12-31T10:14:55.931Z,1024.88
2018-12-31T10:15:55.913Z,1024.88
2018-12-31T10:16:55.916Z,1024.86
2018-12-31T10:17:55.898Z,1024.87
2018-12-31T10:18:55.875Z,1024.86
2018-12-31T10:19:55.866Z,1024.90
2018-12-31T10:20:55.860Z,1024.92
2018-12-31T10:21:55.843Z,1025.00
2018-12-31T10:22:55.841Z,1025.06
2018-12-31T10:23:55.897Z,1025.03
2018-12-31T10:24:55.847Z,1025.05
2018-12-31T10:26:05.439Z,1025.04
2018-12-31T10:26:55.814Z,1025.03
2018-12-31T10:27:55.784Z,1025.06
2018-12-31T10:28:55.778Z,1025.01
2018-12-31T10:29:55.770Z,1025.03
2018-12-31T10:30:55.759Z,1025.02
2018-12-31T10:31:55.751Z,1025.02
2018-12-31T10:32:55.729Z,1024.93
2018-12-31T10:33:55.719Z,1024.94
2018-12-31T10:34:55.871Z,1024.93
2018-12-31T10:35:55.693Z,1024.86
2018-12-31T10:36:55.689Z,1024.84
2018-12-31T10:37:55.670Z,1024.85
2018-12-31T10:38:55.664Z,1024.80
2018-12-31T10:39:55.649Z,1024.84
2018-12-31T10:40:55.662Z,1024.80
2018-12-31T10:41:55.634Z,1024.81
2018-12-31T10:42:55.616Z,1024.80
2018-12-31T10:43:55.615Z,1024.84
2018-12-31T10:44:55.599Z,1024.82
2018-12-31T10:45:55.582Z,1024.81
2018-12-31T10:46:55.585Z,1024.85
2018-12-31T10:47:55.567Z,1024.82
2018-12-31T10:48:55.559Z,1024.81
2018-12-31T10:49:55.545Z,1024.79
2018-12-31T10:50:55.544Z,1024.73
2018-12-31T10:51:55.525Z,1024.81
2018-12-31T10:52:55.519Z,1024.76
2018-12-31T10:53:55.504Z,1024.81
2018-12-31T10:54:55.490Z,1024.78
2018-12-31T10:55:55.472Z,1024.79
2018-12-31T10:56:55.463Z,1024.71
2018-12-31T10:57:55.508Z,1024.72
2018-12-31T10:58:55.452Z,1024.72
2018-12-31T10:59:55.949Z,1024.71
2018-12-31T11:00:55.425Z,1024.69
2018-12-31T11:01:55.525Z,1024.68
2018-12-31T11:02:55.404Z,1024.67
2018-12-31T11:03:57.039Z,1024.65
2018-12-31T11:04:55.665Z,1024.67
2018-12-31T11:05:56.750Z,1024.69
2018-12-31T11:06:56.368Z,1024.68
2018-12-31T11:07:55.436Z,1024.64
2018-12-31T11:08:55.523Z,1024.59
2018-12-31T11:09:55.328Z,1024.55
2018-12-31T11:10:55.312Z,1024.55
2018-12-31T11:11:55.302Z,1024.50
2018-12-31T11:12:55.414Z,1024.57
2018-12-31T11:13:55.284Z,1024.57
2018-12-31T11:14:55.279Z,1024.59
2018-12-31T11:15:55.262Z,1024.52
2018-12-31T11:16:55.258Z,1024.56
2018-12-31T11:17:56.637Z,1024.59
2018-12-31T11:18:55.227Z,1024.51
2018-12-31T11:19:55.252Z,1024.55
2018-12-31T11:20:55.209Z,1024.52
2018-12-31T11:21:55.197Z,1024.51
2018-12-31T11:22:55.188Z,1024.46
2018-12-31T11:23:55.170Z,1024.49
2018-12-31T11:24:55.161Z,1024.48
2018-12-31T11:25:55.166Z,1024.46
2018-12-31T11:26:55.147Z,1024.46
2018-12-31T11:27:55.130Z,1024.44
2018-12-31T11:28:55.130Z,1024.39
2018-12-31T11:29:55.106Z,1024.41
2018-12-31T11:30:55.103Z,1024.39
2018-12-31T11:31:55.087Z,1024.36
2018-12-31T11:32:55.078Z,1024.39
2018-12-31T11:33:55.071Z,1024.37
2018-12-31T11:34:55.054Z,1024.34
2018-12-31T11:35:55.043Z,1024.36
2018-12-31T11:36:55.062Z,1024.34
2018-12-31T11:37:55.018Z,1024.34
2018-12-31T11:38:55.021Z,1024.33
2018-12-31T11:39:55.005Z,1024.33
2018-12-31T11:40:54.989Z,1024.39
2018-12-31T11:41:54.977Z,1024.43
2018-12-31T11:42:54.978Z,1024.44
2018-12-31T11:43:54.954Z,1024.41
2018-12-31T11:44:54.948Z,1024.43
2018-12-31T11:45:54.928Z,1024.41
2018-12-31T11:46:54.916Z,1024.39
2018-12-31T11:47:54.927Z,1024.42
2018-12-31T11:48:54.904Z,1024.43
2018-12-31T11:49:54.893Z,1024.41
2018-12-31T11:50:54.878Z,1024.40
2018-12-31T11:51:54.912Z,1024.41
2018-12-31T11:52:54.855Z,1024.40
2018-12-31T11:53:54.841Z,1024.44
2018-12-31T11:54:54.832Z,1024.40
2018-12-31T11:55:54.823Z,1024.39
2018-12-31T11:56:54.816Z,1024.38
2018-12-31T11:57:54.811Z,1024.35
2018-12-31T11:58:54.795Z,1024.33
2018-12-31T11:59:54.777Z,1024.32
2018-12-31T12:00:54.773Z,1024.31
2018-12-31T12:01:55.729Z,1024.34
2018-12-31T12:02:54.746Z,1024.35
2018-12-31T12:03:54.748Z,1024.31
2018-12-31T12:04:54.726Z,1024.33